sensor_id;sensor_type;location;lat;lon;timestamp;temperature;humidity
21387;DHT22;10854;45.922;6.716;2023-08-06T00:00:29;15.60;99.10
21387;DHT22;10854;45.922;6.716;2023-08-06T00:02:57;15.50;99.30
21387;DHT22;10854;45.922;6.716;2023-08-06T00:05:25;15.60;99.40
21387;DHT22;10854;45.922;6.716;2023-08-06T00:07:53;15.60;99.50
21387;DHT22;10854;45.922;6.716;2023-08-06T00:10:21;15.60;99.80
21387;DHT22;10854;45.922;6.716;2023-08-06T00:12:50;15.50;99.90
21387;DHT22;10854;45.922;6.716;2023-08-06T00:15:18;15.50;99.90
21387;DHT22;10854;45.922;6.716;2023-08-06T00:17:47;15.60;99.90
21387;DHT22;10854;45.922;6.716;2023-08-06T00:20:15;15.60;99.90
21387;DHT22;10854;45.922;6.716;2023-08-06T00:22:43;15.60;99.90
21387;DHT22;10854;45.922;6.716;2023-08-06T00:25:12;15.60;99.90
21387;DHT22;10854;45.922;6.716;2023-08-06T00:27:40;15.50;99.90
21387;DHT22;10854;45.922;6.716;2023-08-06T00:30:09;15.50;99.90
21387;DHT22;10854;45.922;6.716;2023-08-06T00:32:37;15.50;99.90
21387;DHT22;10854;45.922;6.716;2023-08-06T00:35:06;15.40;99.90
21387;DHT22;10854;45.922;6.716;2023-08-06T00:37:34;15.40;99.90
21387;DHT22;10854;45.922;6.716;2023-08-06T00:40:02;15.30;99.90
21387;DHT22;10854;45.922;6.716;2023-08-06T00:42:30;15.30;99.90
21387;DHT22;10854;45.922;6.716;2023-08-06T00:44:58;15.40;99.90
21387;DHT22;10854;45.922;6.716;2023-08-06T00:47:27;15.40;99.90
21387;DHT22;10854;45.922;6.716;2023-08-06T00:49:55;15.30;99.90
21387;DHT22;10854;45.922;6.716;2023-08-06T00:52:23;15.30;99.90
21387;DHT22;10854;45.922;6.716;2023-08-06T00:54:51;15.20;99.90
21387;DHT22;10854;45.922;6.716;2023-08-06T00:57:21;15.20;99.90
21387;DHT22;10854;45.922;6.716;2023-08-06T00:59:53;15.10;99.90
21387;DHT22;10854;45.922;6.716;2023-08-06T01:02:22;15.00;99.90
21387;DHT22;10854;45.922;6.716;2023-08-06T01:04:50;15.00;99.90
21387;DHT22;10854;45.922;6.716;2023-08-06T01:13:11;14.80;99.90
21387;DHT22;10854;45.922;6.716;2023-08-06T01:15:50;14.80;99.90
21387;DHT22;10854;45.922;6.716;2023-08-06T01:18:20;14.80;99.90
21387;DHT22;10854;45.922;6.716;2023-08-06T01:20:50;14.90;99.90
21387;DHT22;10854;45.922;6.716;2023-08-06T01:23:18;15.00;99.90
21387;DHT22;10854;45.922;6.716;2023-08-06T01:28:44;15.10;99.90
21387;DHT22;10854;45.922;6.716;2023-08-06T01:31:21;15.10;99.90
21387;DHT22;10854;45.922;6.716;2023-08-06T01:33:50;15.10;99.90
21387;DHT22;10854;45.922;6.716;2023-08-06T01:36:19;15.10;99.90
21387;DHT22;10854;45.922;6.716;2023-08-06T01:38:48;15.10;99.90
21387;DHT22;10854;45.922;6.716;2023-08-06T01:41:16;15.10;99.90
21387;DHT22;10854;45.922;6.716;2023-08-06T01:43:44;15.10;99.90
21387;DHT22;10854;45.922;6.716;2023-08-06T01:46:13;15.10;99.90
21387;DHT22;10854;45.922;6.716;2023-08-06T01:48:41;15.10;99.90
21387;DHT22;10854;45.922;6.716;2023-08-06T01:51:09;15.10;99.90
21387;DHT22;10854;45.922;6.716;2023-08-06T01:53:37;15.10;99.90
21387;DHT22;10854;45.922;6.716;2023-08-06T01:56:05;15.10;99.90
21387;DHT22;10854;45.922;6.716;2023-08-06T01:58:34;15.10;99.90
21387;DHT22;10854;45.922;6.716;2023-08-06T02:01:02;15.10;99.90
21387;DHT22;10854;45.922;6.716;2023-08-06T02:03:30;15.10;99.90
21387;DHT22;10854;45.922;6.716;2023-08-06T02:05:58;15.20;99.90
21387;DHT22;10854;45.922;6.716;2023-08-06T02:08:28;15.10;99.90
21387;DHT22;10854;45.922;6.716;2023-08-06T02:10:57;15.10;99.90
21387;DHT22;10854;45.922;6.716;2023-08-06T02:13:26;15.10;99.90
21387;DHT22;10854;45.922;6.716;2023-08-06T02:15:54;15.10;99.90
21387;DHT22;10854;45.922;6.716;2023-08-06T02:18:24;15.10;99.90
21387;DHT22;10854;45.922;6.716;2023-08-06T02:20:56;15.10;99.90
21387;DHT22;10854;45.922;6.716;2023-08-06T02:23:25;15.10;99.90
21387;DHT22;10854;45.922;6.716;2023-08-06T02:26:03;15.00;99.90
21387;DHT22;10854;45.922;6.716;2023-08-06T02:28:31;15.00;99.90
21387;DHT22;10854;45.922;6.716;2023-08-06T02:31:00;14.90;99.90
21387;DHT22;10854;45.922;6.716;2023-08-06T02:33:29;14.90;99.90
21387;DHT22;10854;45.922;6.716;2023-08-06T02:36:06;14.80;99.90
21387;DHT22;10854;45.922;6.716;2023-08-06T02:38:35;14.80;99.90
21387;DHT22;10854;45.922;6.716;2023-08-06T02:41:03;14.80;99.90
21387;DHT22;10854;45.922;6.716;2023-08-06T02:43:32;14.80;99.90
21387;DHT22;10854;45.922;6.716;2023-08-06T02:46:00;14.80;99.90
21387;DHT22;10854;45.922;6.716;2023-08-06T02:48:29;14.90;99.90
21387;DHT22;10854;45.922;6.716;2023-08-06T02:50:58;14.90;99.90
21387;DHT22;10854;45.922;6.716;2023-08-06T02:53:27;14.90;99.90
21387;DHT22;10854;45.922;6.716;2023-08-06T02:55:55;14.90;99.90
21387;DHT22;10854;45.922;6.716;2023-08-06T02:58:23;14.80;99.90
21387;DHT22;10854;45.922;6.716;2023-08-06T03:01:05;14.70;99.90
21387;DHT22;10854;45.922;6.716;2023-08-06T03:03:34;14.60;99.90
21387;DHT22;10854;45.922;6.716;2023-08-06T03:06:03;14.50;99.90
21387;DHT22;10854;45.922;6.716;2023-08-06T03:08:31;14.40;99.90
21387;DHT22;10854;45.922;6.716;2023-08-06T03:10:59;14.40;99.90
21387;DHT22;10854;45.922;6.716;2023-08-06T03:13:27;14.30;99.90
21387;DHT22;10854;45.922;6.716;2023-08-06T03:15:57;14.20;99.90
21387;DHT22;10854;45.922;6.716;2023-08-06T03:18:26;14.20;99.90
21387;DHT22;10854;45.922;6.716;2023-08-06T03:20:54;14.10;99.90
21387;DHT22;10854;45.922;6.716;2023-08-06T03:23:22;14.10;99.90
21387;DHT22;10854;45.922;6.716;2023-08-06T03:25:51;14.00;99.90
21387;DHT22;10854;45.922;6.716;2023-08-06T03:28:19;14.00;99.90
21387;DHT22;10854;45.922;6.716;2023-08-06T03:30:47;14.00;99.90
21387;DHT22;10854;45.922;6.716;2023-08-06T03:33:15;13.90;99.90
21387;DHT22;10854;45.922;6.716;2023-08-06T03:35:43;13.80;99.90
21387;DHT22;10854;45.922;6.716;2023-08-06T03:38:11;13.70;99.90
21387;DHT22;10854;45.922;6.716;2023-08-06T03:40:39;13.60;99.90
21387;DHT22;10854;45.922;6.716;2023-08-06T03:43:07;13.60;99.90
21387;DHT22;10854;45.922;6.716;2023-08-06T03:45:36;13.50;99.90
21387;DHT22;10854;45.922;6.716;2023-08-06T03:48:05;13.50;99.90
21387;DHT22;10854;45.922;6.716;2023-08-06T03:50:33;13.40;99.90
21387;DHT22;10854;45.922;6.716;2023-08-06T03:53:01;13.40;99.90
21387;DHT22;10854;45.922;6.716;2023-08-06T03:55:30;13.30;99.90
21387;DHT22;10854;45.922;6.716;2023-08-06T03:57:58;13.30;99.90
21387;DHT22;10854;45.922;6.716;2023-08-06T04:00:26;13.20;99.90
21387;DHT22;10854;45.922;6.716;2023-08-06T04:02:54;13.20;99.90
21387;DHT22;10854;45.922;6.716;2023-08-06T04:05:23;13.20;99.90
21387;DHT22;10854;45.922;6.716;2023-08-06T04:07:51;13.10;99.90
21387;DHT22;10854;45.922;6.716;2023-08-06T04:10:19;13.10;99.90
21387;DHT22;10854;45.922;6.716;2023-08-06T04:12:47;13.10;99.90
21387;DHT22;10854;45.922;6.716;2023-08-06T04:15:15;13.10;99.90
21387;DHT22;10854;45.922;6.716;2023-08-06T04:17:43;13.20;99.90
21387;DHT22;10854;45.922;6.716;2023-08-06T04:20:12;13.10;99.90
21387;DHT22;10854;45.922;6.716;2023-08-06T04:22:40;13.20;99.90
21387;DHT22;10854;45.922;6.716;2023-08-06T04:25:08;13.20;99.90
21387;DHT22;10854;45.922;6.716;2023-08-06T04:27:37;13.20;99.90
21387;DHT22;10854;45.922;6.716;2023-08-06T04:30:09;13.30;99.90
21387;DHT22;10854;45.922;6.716;2023-08-06T04:32:39;13.30;99.90
21387;DHT22;10854;45.922;6.716;2023-08-06T04:35:08;13.30;99.90
21387;DHT22;10854;45.922;6.716;2023-08-06T04:37:36;13.30;99.90
21387;DHT22;10854;45.922;6.716;2023-08-06T04:40:04;13.30;99.90
21387;DHT22;10854;45.922;6.716;2023-08-06T04:42:34;13.30;99.90
21387;DHT22;10854;45.922;6.716;2023-08-06T04:45:02;13.40;99.90
21387;DHT22;10854;45.922;6.716;2023-08-06T04:47:31;13.40;99.90
21387;DHT22;10854;45.922;6.716;2023-08-06T04:49:59;13.50;99.90
21387;DHT22;10854;45.922;6.716;2023-08-06T04:52:27;13.50;99.90
21387;DHT22;10854;45.922;6.716;2023-08-06T04:54:56;13.50;99.90
21387;DHT22;10854;45.922;6.716;2023-08-06T04:57:24;13.40;99.90
21387;DHT22;10854;45.922;6.716;2023-08-06T04:59:52;13.40;99.90
21387;DHT22;10854;45.922;6.716;2023-08-06T05:02:20;13.40;99.90
21387;DHT22;10854;45.922;6.716;2023-08-06T05:04:48;13.40;99.90
21387;DHT22;10854;45.922;6.716;2023-08-06T05:07:16;13.40;99.90
21387;DHT22;10854;45.922;6.716;2023-08-06T05:09:44;13.50;99.90
21387;DHT22;10854;45.922;6.716;2023-08-06T05:12:13;13.50;99.90
21387;DHT22;10854;45.922;6.716;2023-08-06T05:14:41;13.50;99.90
21387;DHT22;10854;45.922;6.716;2023-08-06T05:17:09;13.50;99.90
21387;DHT22;10854;45.922;6.716;2023-08-06T05:19:37;13.50;99.90
21387;DHT22;10854;45.922;6.716;2023-08-06T05:22:05;13.50;99.90
21387;DHT22;10854;45.922;6.716;2023-08-06T05:24:34;13.50;99.90
21387;DHT22;10854;45.922;6.716;2023-08-06T05:27:03;13.50;99.90
21387;DHT22;10854;45.922;6.716;2023-08-06T05:29:31;13.50;99.90
21387;DHT22;10854;45.922;6.716;2023-08-06T05:32:00;13.50;99.90
21387;DHT22;10854;45.922;6.716;2023-08-06T05:34:28;13.50;99.90
21387;DHT22;10854;45.922;6.716;2023-08-06T05:36:56;13.50;99.90
21387;DHT22;10854;45.922;6.716;2023-08-06T05:39:24;13.40;99.90
21387;DHT22;10854;45.922;6.716;2023-08-06T05:41:52;13.50;99.90
21387;DHT22;10854;45.922;6.716;2023-08-06T05:44:21;13.50;99.90
21387;DHT22;10854;45.922;6.716;2023-08-06T05:46:49;13.50;99.90
21387;DHT22;10854;45.922;6.716;2023-08-06T05:49:17;13.50;99.90
21387;DHT22;10854;45.922;6.716;2023-08-06T05:51:46;13.60;99.90
21387;DHT22;10854;45.922;6.716;2023-08-06T05:54:14;13.60;99.90
21387;DHT22;10854;45.922;6.716;2023-08-06T05:56:42;13.70;99.90
21387;DHT22;10854;45.922;6.716;2023-08-06T05:59:10;13.70;99.90
21387;DHT22;10854;45.922;6.716;2023-08-06T06:01:39;13.80;99.90
21387;DHT22;10854;45.922;6.716;2023-08-06T06:04:07;13.90;99.90
21387;DHT22;10854;45.922;6.716;2023-08-06T06:06:36;13.90;99.90
21387;DHT22;10854;45.922;6.716;2023-08-06T06:09:04;14.00;99.90
21387;DHT22;10854;45.922;6.716;2023-08-06T06:11:32;14.10;99.90
21387;DHT22;10854;45.922;6.716;2023-08-06T06:14:01;14.20;99.90
21387;DHT22;10854;45.922;6.716;2023-08-06T06:16:30;14.40;99.90
21387;DHT22;10854;45.922;6.716;2023-08-06T06:18:58;14.50;99.90
21387;DHT22;10854;45.922;6.716;2023-08-06T06:21:26;14.50;99.90
21387;DHT22;10854;45.922;6.716;2023-08-06T06:23:54;14.50;99.90
21387;DHT22;10854;45.922;6.716;2023-08-06T06:26:23;14.50;99.90
21387;DHT22;10854;45.922;6.716;2023-08-06T06:28:51;14.60;99.90
21387;DHT22;10854;45.922;6.716;2023-08-06T06:31:20;14.60;99.90
21387;DHT22;10854;45.922;6.716;2023-08-06T06:33:48;14.60;99.90
21387;DHT22;10854;45.922;6.716;2023-08-06T06:36:16;14.60;99.90
21387;DHT22;10854;45.922;6.716;2023-08-06T06:38:44;14.60;99.90
21387;DHT22;10854;45.922;6.716;2023-08-06T06:41:12;14.70;99.90
21387;DHT22;10854;45.922;6.716;2023-08-06T06:43:40;14.80;99.90
21387;DHT22;10854;45.922;6.716;2023-08-06T06:46:09;14.90;99.90
21387;DHT22;10854;45.922;6.716;2023-08-06T06:48:37;14.90;99.90
21387;DHT22;10854;45.922;6.716;2023-08-06T06:51:06;15.00;99.90
21387;DHT22;10854;45.922;6.716;2023-08-06T06:53:34;15.00;99.90
21387;DHT22;10854;45.922;6.716;2023-08-06T06:56:03;15.10;99.90
21387;DHT22;10854;45.922;6.716;2023-08-06T06:58:32;15.10;99.90
21387;DHT22;10854;45.922;6.716;2023-08-06T07:01:00;15.20;99.90
21387;DHT22;10854;45.922;6.716;2023-08-06T07:03:29;15.30;99.90
21387;DHT22;10854;45.922;6.716;2023-08-06T07:05:57;15.30;99.90
21387;DHT22;10854;45.922;6.716;2023-08-06T07:08:26;15.40;99.90
21387;DHT22;10854;45.922;6.716;2023-08-06T07:11:05;15.40;99.90
21387;DHT22;10854;45.922;6.716;2023-08-06T07:13:34;15.40;99.90
21387;DHT22;10854;45.922;6.716;2023-08-06T07:16:03;15.50;99.90
21387;DHT22;10854;45.922;6.716;2023-08-06T07:18:31;15.50;99.90
21387;DHT22;10854;45.922;6.716;2023-08-06T07:21:02;15.50;99.90
21387;DHT22;10854;45.922;6.716;2023-08-06T07:23:30;15.50;99.90
21387;DHT22;10854;45.922;6.716;2023-08-06T07:25:58;15.50;99.90
21387;DHT22;10854;45.922;6.716;2023-08-06T07:28:27;15.50;99.90
21387;DHT22;10854;45.922;6.716;2023-08-06T07:30:55;15.50;99.90
21387;DHT22;10854;45.922;6.716;2023-08-06T07:33:23;15.50;99.90
21387;DHT22;10854;45.922;6.716;2023-08-06T07:35:51;15.40;99.90
21387;DHT22;10854;45.922;6.716;2023-08-06T07:38:21;14.90;99.90
21387;DHT22;10854;45.922;6.716;2023-08-06T07:40:49;14.60;99.90
21387;DHT22;10854;45.922;6.716;2023-08-06T07:43:17;14.30;99.90
21387;DHT22;10854;45.922;6.716;2023-08-06T07:45:45;14.10;99.90
21387;DHT22;10854;45.922;6.716;2023-08-06T07:48:14;14.20;99.90
21387;DHT22;10854;45.922;6.716;2023-08-06T07:50:42;14.20;99.90
21387;DHT22;10854;45.922;6.716;2023-08-06T07:53:12;14.30;99.90
21387;DHT22;10854;45.922;6.716;2023-08-06T07:55:41;14.50;99.90
21387;DHT22;10854;45.922;6.716;2023-08-06T07:58:10;14.60;99.90
21387;DHT22;10854;45.922;6.716;2023-08-06T08:00:38;15.10;99.90
21387;DHT22;10854;45.922;6.716;2023-08-06T08:03:06;15.70;99.90
21387;DHT22;10854;45.922;6.716;2023-08-06T08:05:34;16.00;99.90
21387;DHT22;10854;45.922;6.716;2023-08-06T08:08:03;16.00;99.90
21387;DHT22;10854;45.922;6.716;2023-08-06T08:10:32;16.20;99.90
21387;DHT22;10854;45.922;6.716;2023-08-06T08:13:01;16.20;99.90
21387;DHT22;10854;45.922;6.716;2023-08-06T08:15:29;16.30;99.90
21387;DHT22;10854;45.922;6.716;2023-08-06T08:17:58;16.30;99.90
21387;DHT22;10854;45.922;6.716;2023-08-06T08:20:26;16.10;99.90
21387;DHT22;10854;45.922;6.716;2023-08-06T08:23:00;15.90;99.90
21387;DHT22;10854;45.922;6.716;2023-08-06T08:25:28;15.60;99.90
21387;DHT22;10854;45.922;6.716;2023-08-06T08:27:58;15.40;99.90
21387;DHT22;10854;45.922;6.716;2023-08-06T08:30:26;15.20;99.90
21387;DHT22;10854;45.922;6.716;2023-08-06T08:32:54;15.00;99.90
21387;DHT22;10854;45.922;6.716;2023-08-06T08:35:23;14.90;99.90
21387;DHT22;10854;45.922;6.716;2023-08-06T08:37:51;14.90;99.90
21387;DHT22;10854;45.922;6.716;2023-08-06T08:40:21;14.90;99.90
21387;DHT22;10854;45.922;6.716;2023-08-06T08:42:51;15.00;99.90
21387;DHT22;10854;45.922;6.716;2023-08-06T08:45:20;15.20;99.90
21387;DHT22;10854;45.922;6.716;2023-08-06T08:47:50;15.60;99.90
21387;DHT22;10854;45.922;6.716;2023-08-06T08:50:18;15.90;99.90
21387;DHT22;10854;45.922;6.716;2023-08-06T08:52:47;16.20;99.90
21387;DHT22;10854;45.922;6.716;2023-08-06T08:55:19;16.70;99.90
21387;DHT22;10854;45.922;6.716;2023-08-06T08:57:49;17.30;99.10
21387;DHT22;10854;45.922;6.716;2023-08-06T09:00:17;18.00;95.30
21387;DHT22;10854;45.922;6.716;2023-08-06T09:02:46;18.50;92.00
21387;DHT22;10854;45.922;6.716;2023-08-06T09:05:15;18.80;90.00
21387;DHT22;10854;45.922;6.716;2023-08-06T09:07:48;19.00;88.30
21387;DHT22;10854;45.922;6.716;2023-08-06T09:10:17;19.00;85.50
21387;DHT22;10854;45.922;6.716;2023-08-06T09:12:47;18.90;85.60
21387;DHT22;10854;45.922;6.716;2023-08-06T09:15:16;18.80;85.20
21387;DHT22;10854;45.922;6.716;2023-08-06T09:17:44;18.60;85.10
21387;DHT22;10854;45.922;6.716;2023-08-06T09:20:13;18.70;86.10
21387;DHT22;10854;45.922;6.716;2023-08-06T09:22:42;18.90;87.60
21387;DHT22;10854;45.922;6.716;2023-08-06T09:25:12;19.10;85.00
21387;DHT22;10854;45.922;6.716;2023-08-06T09:27:46;19.20;82.50
21387;DHT22;10854;45.922;6.716;2023-08-06T09:30:31;19.30;80.20
21387;DHT22;10854;45.922;6.716;2023-08-06T09:33:00;19.40;78.60
21387;DHT22;10854;45.922;6.716;2023-08-06T09:35:30;19.60;78.50
21387;DHT22;10854;45.922;6.716;2023-08-06T09:38:08;19.90;78.60
21387;DHT22;10854;45.922;6.716;2023-08-06T09:40:39;20.50;77.30
21387;DHT22;10854;45.922;6.716;2023-08-06T09:43:07;20.80;75.80
21387;DHT22;10854;45.922;6.716;2023-08-06T09:45:37;20.90;74.50
21387;DHT22;10854;45.922;6.716;2023-08-06T09:48:07;21.00;72.90
21387;DHT22;10854;45.922;6.716;2023-08-06T09:50:37;21.10;71.60
21387;DHT22;10854;45.922;6.716;2023-08-06T09:53:06;21.40;71.20
21387;DHT22;10854;45.922;6.716;2023-08-06T09:55:36;21.50;69.60
21387;DHT22;10854;45.922;6.716;2023-08-06T09:58:06;21.50;67.10
21387;DHT22;10854;45.922;6.716;2023-08-06T10:00:36;21.30;66.50
21387;DHT22;10854;45.922;6.716;2023-08-06T10:03:06;21.10;65.60
21387;DHT22;10854;45.922;6.716;2023-08-06T10:05:36;20.90;67.30
21387;DHT22;10854;45.922;6.716;2023-08-06T10:08:07;21.20;66.40
21387;DHT22;10854;45.922;6.716;2023-08-06T10:10:35;21.40;64.60
21387;DHT22;10854;45.922;6.716;2023-08-06T10:13:06;21.30;64.80
21387;DHT22;10854;45.922;6.716;2023-08-06T10:15:36;21.40;66.00
21387;DHT22;10854;45.922;6.716;2023-08-06T10:18:06;21.60;66.20
21387;DHT22;10854;45.922;6.716;2023-08-06T10:20:35;21.50;66.80
21387;DHT22;10854;45.922;6.716;2023-08-06T10:23:04;21.30;67.70
21387;DHT22;10854;45.922;6.716;2023-08-06T10:25:34;21.20;67.50
21387;DHT22;10854;45.922;6.716;2023-08-06T10:28:10;21.00;67.80
21387;DHT22;10854;45.922;6.716;2023-08-06T10:30:47;20.90;68.00
21387;DHT22;10854;45.922;6.716;2023-08-06T10:33:19;21.00;69.20
21387;DHT22;10854;45.922;6.716;2023-08-06T10:35:49;21.10;68.20
21387;DHT22;10854;45.922;6.716;2023-08-06T10:38:20;21.30;67.60
21387;DHT22;10854;45.922;6.716;2023-08-06T10:43:48;22.20;65.00
21387;DHT22;10854;45.922;6.716;2023-08-06T10:46:27;22.40;63.90
21387;DHT22;10854;45.922;6.716;2023-08-06T10:48:55;22.20;64.20
21387;DHT22;10854;45.922;6.716;2023-08-06T10:51:24;22.00;63.40
21387;DHT22;10854;45.922;6.716;2023-08-06T10:53:53;21.70;63.00
21387;DHT22;10854;45.922;6.716;2023-08-06T10:56:25;21.40;63.40
21387;DHT22;10854;45.922;6.716;2023-08-06T10:58:57;21.00;64.80
21387;DHT22;10854;45.922;6.716;2023-08-06T11:01:28;20.50;66.40
21387;DHT22;10854;45.922;6.716;2023-08-06T11:04:02;20.00;69.10
21387;DHT22;10854;45.922;6.716;2023-08-06T11:06:30;19.50;72.10
21387;DHT22;10854;45.922;6.716;2023-08-06T11:08:59;19.10;73.90
21387;DHT22;10854;45.922;6.716;2023-08-06T11:11:28;18.70;76.30
21387;DHT22;10854;45.922;6.716;2023-08-06T11:13:58;18.70;77.10
21387;DHT22;10854;45.922;6.716;2023-08-06T11:16:26;18.90;77.50
21387;DHT22;10854;45.922;6.716;2023-08-06T11:18:55;19.20;76.30
21387;DHT22;10854;45.922;6.716;2023-08-06T11:21:24;19.60;75.60
21387;DHT22;10854;45.922;6.716;2023-08-06T11:23:53;20.10;72.10
21387;DHT22;10854;45.922;6.716;2023-08-06T11:26:22;20.30;69.10
21387;DHT22;10854;45.922;6.716;2023-08-06T11:28:53;20.40;67.40
21387;DHT22;10854;45.922;6.716;2023-08-06T11:31:23;20.50;68.20
21387;DHT22;10854;45.922;6.716;2023-08-06T11:33:52;20.50;68.90
21387;DHT22;10854;45.922;6.716;2023-08-06T11:36:40;20.70;70.40
21387;DHT22;10854;45.922;6.716;2023-08-06T11:39:09;20.80;69.70
21387;DHT22;10854;45.922;6.716;2023-08-06T11:41:37;20.80;68.50
21387;DHT22;10854;45.922;6.716;2023-08-06T11:44:11;20.80;68.50
21387;DHT22;10854;45.922;6.716;2023-08-06T11:46:54;21.20;68.90
21387;DHT22;10854;45.922;6.716;2023-08-06T11:49:44;21.70;65.90
21387;DHT22;10854;45.922;6.716;2023-08-06T11:52:25;22.10;63.60
21387;DHT22;10854;45.922;6.716;2023-08-06T11:55:07;22.70;62.20
21387;DHT22;10854;45.922;6.716;2023-08-06T11:57:39;23.30;61.60
21387;DHT22;10854;45.922;6.716;2023-08-06T12:00:10;23.60;59.80
21387;DHT22;10854;45.922;6.716;2023-08-06T12:02:40;24.00;59.90
21387;DHT22;10854;45.922;6.716;2023-08-06T12:05:13;24.50;59.60
21387;DHT22;10854;45.922;6.716;2023-08-06T12:07:48;24.90;57.40
21387;DHT22;10854;45.922;6.716;2023-08-06T12:10:17;25.10;54.90
21387;DHT22;10854;45.922;6.716;2023-08-06T12:12:47;25.00;54.20
21387;DHT22;10854;45.922;6.716;2023-08-06T12:15:16;24.60;53.80
21387;DHT22;10854;45.922;6.716;2023-08-06T12:17:44;24.00;54.80
21387;DHT22;10854;45.922;6.716;2023-08-06T12:20:12;23.70;54.40
21387;DHT22;10854;45.922;6.716;2023-08-06T12:22:41;23.60;54.60
21387;DHT22;10854;45.922;6.716;2023-08-06T12:25:11;23.60;55.40
21387;DHT22;10854;45.922;6.716;2023-08-06T12:27:41;23.60;56.30
21387;DHT22;10854;45.922;6.716;2023-08-06T12:30:11;23.40;56.80
21387;DHT22;10854;45.922;6.716;2023-08-06T12:32:39;23.00;57.30
21387;DHT22;10854;45.922;6.716;2023-08-06T12:35:08;22.50;58.30
21387;DHT22;10854;45.922;6.716;2023-08-06T12:37:37;22.00;59.50
21387;DHT22;10854;45.922;6.716;2023-08-06T12:40:06;21.60;60.80
21387;DHT22;10854;45.922;6.716;2023-08-06T12:42:46;21.20;62.20
21387;DHT22;10854;45.922;6.716;2023-08-06T12:45:15;20.90;64.40
21387;DHT22;10854;45.922;6.716;2023-08-06T12:47:43;20.50;64.80
21387;DHT22;10854;45.922;6.716;2023-08-06T12:50:11;20.30;66.30
21387;DHT22;10854;45.922;6.716;2023-08-06T12:52:39;20.30;66.30
21387;DHT22;10854;45.922;6.716;2023-08-06T12:55:08;20.30;65.20
21387;DHT22;10854;45.922;6.716;2023-08-06T12:57:36;20.40;64.90
21387;DHT22;10854;45.922;6.716;2023-08-06T13:00:14;20.60;64.60
21387;DHT22;10854;45.922;6.716;2023-08-06T13:02:42;20.90;64.00
21387;DHT22;10854;45.922;6.716;2023-08-06T13:05:10;21.20;65.30
21387;DHT22;10854;45.922;6.716;2023-08-06T13:07:38;21.70;65.20
21387;DHT22;10854;45.922;6.716;2023-08-06T13:10:07;22.10;63.40
21387;DHT22;10854;45.922;6.716;2023-08-06T13:12:35;22.50;62.80
21387;DHT22;10854;45.922;6.716;2023-08-06T13:15:04;22.70;62.70
21387;DHT22;10854;45.922;6.716;2023-08-06T13:17:32;22.90;60.30
21387;DHT22;10854;45.922;6.716;2023-08-06T13:20:00;22.60;59.30
21387;DHT22;10854;45.922;6.716;2023-08-06T13:22:28;22.20;59.30
21387;DHT22;10854;45.922;6.716;2023-08-06T13:24:56;21.70;59.50
21387;DHT22;10854;45.922;6.716;2023-08-06T13:27:25;21.40;60.00
21387;DHT22;10854;45.922;6.716;2023-08-06T13:29:53;21.20;59.00
21387;DHT22;10854;45.922;6.716;2023-08-06T13:32:21;21.10;59.20
21387;DHT22;10854;45.922;6.716;2023-08-06T13:34:50;21.40;59.20
21387;DHT22;10854;45.922;6.716;2023-08-06T13:37:18;21.80;60.00
21387;DHT22;10854;45.922;6.716;2023-08-06T13:39:46;22.30;59.80
21387;DHT22;10854;45.922;6.716;2023-08-06T13:42:15;23.10;58.50
21387;DHT22;10854;45.922;6.716;2023-08-06T13:44:43;23.60;56.70
21387;DHT22;10854;45.922;6.716;2023-08-06T13:47:11;23.90;55.20
21387;DHT22;10854;45.922;6.716;2023-08-06T13:49:39;23.80;54.60
21387;DHT22;10854;45.922;6.716;2023-08-06T13:52:07;23.50;54.60
21387;DHT22;10854;45.922;6.716;2023-08-06T13:54:46;23.10;53.60
21387;DHT22;10854;45.922;6.716;2023-08-06T13:57:14;22.60;54.80
21387;DHT22;10854;45.922;6.716;2023-08-06T13:59:42;22.20;56.10
21387;DHT22;10854;45.922;6.716;2023-08-06T14:02:11;22.30;56.30
21387;DHT22;10854;45.922;6.716;2023-08-06T14:04:39;22.60;55.70
21387;DHT22;10854;45.922;6.716;2023-08-06T14:07:08;22.90;55.70
21387;DHT22;10854;45.922;6.716;2023-08-06T14:09:36;22.90;54.60
21387;DHT22;10854;45.922;6.716;2023-08-06T14:12:04;22.70;54.40
21387;DHT22;10854;45.922;6.716;2023-08-06T14:14:33;22.60;54.90
21387;DHT22;10854;45.922;6.716;2023-08-06T14:17:01;22.50;55.90
21387;DHT22;10854;45.922;6.716;2023-08-06T14:19:29;22.30;56.80
21387;DHT22;10854;45.922;6.716;2023-08-06T14:21:57;22.00;57.10
21387;DHT22;10854;45.922;6.716;2023-08-06T14:24:25;21.60;57.90
21387;DHT22;10854;45.922;6.716;2023-08-06T14:26:54;21.20;58.60
21387;DHT22;10854;45.922;6.716;2023-08-06T14:29:22;21.00;59.20
21387;DHT22;10854;45.922;6.716;2023-08-06T14:31:51;20.80;60.00
21387;DHT22;10854;45.922;6.716;2023-08-06T14:34:19;20.90;60.60
21387;DHT22;10854;45.922;6.716;2023-08-06T14:36:47;21.00;61.20
21387;DHT22;10854;45.922;6.716;2023-08-06T14:39:16;20.60;61.10
21387;DHT22;10854;45.922;6.716;2023-08-06T14:41:44;20.20;61.70
21387;DHT22;10854;45.922;6.716;2023-08-06T14:44:12;19.90;64.40
21387;DHT22;10854;45.922;6.716;2023-08-06T14:46:40;19.80;66.80
21387;DHT22;10854;45.922;6.716;2023-08-06T14:49:09;19.80;67.50
21387;DHT22;10854;45.922;6.716;2023-08-06T14:51:37;20.00;67.00
21387;DHT22;10854;45.922;6.716;2023-08-06T14:54:06;20.10;67.80
21387;DHT22;10854;45.922;6.716;2023-08-06T14:56:34;20.10;67.90
21387;DHT22;10854;45.922;6.716;2023-08-06T14:59:03;19.90;68.00
21387;DHT22;10854;45.922;6.716;2023-08-06T15:01:31;19.90;68.50
21387;DHT22;10854;45.922;6.716;2023-08-06T15:03:59;19.90;68.00
21387;DHT22;10854;45.922;6.716;2023-08-06T15:06:27;19.90;67.80
21387;DHT22;10854;45.922;6.716;2023-08-06T15:08:55;20.00;66.80
21387;DHT22;10854;45.922;6.716;2023-08-06T15:11:26;20.10;66.60
21387;DHT22;10854;45.922;6.716;2023-08-06T15:13:54;20.20;66.20
21387;DHT22;10854;45.922;6.716;2023-08-06T15:16:22;20.30;66.10
21387;DHT22;10854;45.922;6.716;2023-08-06T15:18:50;20.50;66.50
21387;DHT22;10854;45.922;6.716;2023-08-06T15:21:20;20.60;66.70
21387;DHT22;10854;45.922;6.716;2023-08-06T15:23:48;20.70;67.90
21387;DHT22;10854;45.922;6.716;2023-08-06T15:26:17;20.50;70.10
21387;DHT22;10854;45.922;6.716;2023-08-06T15:28:46;20.30;68.80
21387;DHT22;10854;45.922;6.716;2023-08-06T15:31:14;20.00;69.40
21387;DHT22;10854;45.922;6.716;2023-08-06T15:33:43;20.00;71.20
21387;DHT22;10854;45.922;6.716;2023-08-06T15:36:11;20.00;71.70
21387;DHT22;10854;45.922;6.716;2023-08-06T15:38:39;20.10;70.90
21387;DHT22;10854;45.922;6.716;2023-08-06T15:41:07;20.30;70.40
21387;DHT22;10854;45.922;6.716;2023-08-06T15:43:35;20.30;69.00
21387;DHT22;10854;45.922;6.716;2023-08-06T15:46:03;20.20;68.00
21387;DHT22;10854;45.922;6.716;2023-08-06T15:48:32;20.20;67.90
21387;DHT22;10854;45.922;6.716;2023-08-06T15:51:00;20.00;67.90
21387;DHT22;10854;45.922;6.716;2023-08-06T15:53:29;19.80;67.90